This is the latest recevied weather packets stored in our database for station/object VK2OB. If no packets are shown the sender has not sent any weather packets the latest 10 day(s).
| Time | Temp. | Humidity | Pressure | Rain* | Wind** | Luminosity | Snow |
|---|---|---|---|---|---|---|---|
| 1777430591 | 26.67° C | 52% | 1027.6 hPa | 0 mm | - | - | - |
| 1777430292 | 26.11° C | 53% | 1027.7 hPa | 0 mm | - | - | - |
| 1777429993 | 25.56° C | 58% | 1027.7 hPa | 0 mm | - | - | - |
| 1777429694 | 25.56° C | 57% | 1027.8 hPa | 0 mm | - | - | - |
| 1777429395 | 25.56° C | 57% | 1027.8 hPa | 0 mm | - | - | - |
| 1777429096 | 25.56° C | 54% | 1027.8 hPa | 0 mm | - | - | - |
| 1777428797 | 26.11° C | 52% | 1027.8 hPa | 0 mm | - | - | - |
| 1777428498 | 26.67° C | 51% | 1027.9 hPa | 0 mm | - | - | - |
| 1777428199 | 27.22° C | 50% | 1028.2 hPa | 0 mm | - | - | - |
| 1777427899 | 27.22° C | 51% | 1028.2 hPa | 0 mm | - | - | - |
| 1777427601 | 26.67° C | 52% | 1028.3 hPa | 0 mm | - | - | - |
| 1777427302 | 26.67° C | 50% | 1028.3 hPa | 0 mm | - | - | - |
| 1777427003 | 27.78° C | 48% | 1028.4 hPa | 0 mm | - | - | - |
| 1777426704 | 28.89° C | 47% | 1028.4 hPa | 0 mm | - | - | - |
| 1777426404 | 28.33° C | 47% | 1028.5 hPa | 0 mm | - | - | - |
| 1777426105 | 28.33° C | 48% | 1028.6 hPa | 0 mm | - | - | - |
| 1777425806 | 27.78° C | 50% | 1028.6 hPa | 0 mm | - | - | - |
| 1777425507 | 26.67° C | 55% | 1028.6 hPa | 0 mm | - | - | - |
| 1777425208 | 25° C | 58% | 1028.7 hPa | 0 mm | - | - | - |
| 1777424909 | 24.44° C | 59% | 1028.7 hPa | 0 mm | - | - | - |
| 1777424610 | 25° C | 58% | 1028.7 hPa | 0 mm | - | - | - |
| 1777424311 | 25° C | 55% | 1028.8 hPa | 0 mm | - | - | - |
| 1777424012 | 25.56° C | 53% | 1028.8 hPa | 0 mm | - | - | - |
| 1777423713 | 26.67° C | 49% | 1028.7 hPa | 0 mm | - | - | - |
| 1777423414 | 27.78° C | 50% | 1028.7 hPa | 0 mm | - | - | - |
* Rain latest hour (hover to see other rain measurements)
** Current wind speed in m/s (hover to see current wind gust speed)